Terminal Aerodrome Forecast
Issued by NWS Lake Charles, LA

Home | Current Version | Previous Version | Text Only | Print | Product List | Glossary On
Versions: 1 2 3 4 5 6 7 8 9 10 11 12 13 14 15 16
000
FTUS44 KLCH 191100
TAFLFT
TAF
KLFT 191120Z 1912/2012 01006KT P6SM -RA VCTS SCT007 OVC035CB
      TEMPO 1912/1916 4SM -RA BR OVC007
     FM191600 05004KT 4SM -RA BR OVC007
     FM200300 05005KT 4SM BR VCSH OVC007
     FM200600 03006KT 4SM BR OVC004=

USA.gov is the U.S. government's official web portal to all federal, state and local government web resources and services.